Date,TemperatureHighF,TemperatureAvgF,TemperatureLowF,DewpointHighF,DewpointAvgF,DewpointLowF,HumidityHigh,HumidityAvg,HumidityLow,PressureMaxIn,PressureMinIn,WindSpeedMaxMPH,WindSpeedAvgMPH,GustSpeedMaxMPH,PrecipitationSumIn
2013-1-10,70.7,58.9,46.8,54.1,48.4,43.2,99,71,48,30.07,29.94,4,0,6,0.00
2013-1-11,68.9,51.1,48.2,51.4,50.3,46.5,99,97,86,30.05,29.74,3,0,5,0.00
2013-1-12,75.2,60.8,50.9,65.4,56.7,47.0,99,88,64,30.04,29.67,4,0,7,0.00
2013-1-13,74.5,64.2,55.0,62.1,58.4,48.1,99,83,60,30.06,29.64,5,1,8,0.00
2013-1-14,73.2,64.1,61.0,65.3,60.8,46.5,96,89,81,29.99,29.65,3,1,5,0.14
2013-1-15,67.6,51.8,44.6,60.8,50.7,43.7,99,96,86,29.99,29.64,4,1,6,0.01
2013-1-16,70.0,47.1,43.2,61.3,46.6,42.6,99,98,87,29.99,29.55,4,0,8,0.27
2013-1-17,52.3,47.1,35.4,51.8,46.4,33.5,99,97,92,29.76,29.34,11,2,17,1.90
2013-1-18,52.0,38.6,30.9,38.1,28.6,18.2,99,72,30,30.08,29.76,5,0,10,0.00
2013-1-19,55.6,40.5,26.6,37.8,28.0,20.5,97,66,26,30.04,29.75,4,0,103,0.01
2013-1-20,55.9,46.0,39.4,36.6,34.1,30.1,82,64,44,29.67,29.62,2,0,3,0.00
2013-1-21,61.9,45.6,30.6,39.6,28.2,13.3,97,57,24,29.66,29.50,6,1,11,0.00
2013-1-22,45.1,37.6,28.8,18.2,6.8,-1.4,42,28,21,29.83,29.58,7,1,9,0.00
2013-1-23,46.6,34.4,23.0,27.3,13.9,0.0,71,45,22,29.92,29.63,5,1,8,0.00
2013-1-24,51.6,38.4,27.1,36.3,17.2,-1.6,84,47,22,30.06,29.56,7,1,12,0.00
2013-1-25,27.3,25.7,23.0,23.1,12.6,0.4,87,60,31,30.07,29.67,3,0,5,0.04
2013-1-26,46.4,32.8,24.4,35.7,28.2,21.7,95,84,61,29.92,29.65,4,0,5,0.01
2013-1-27,45.7,34.4,27.1,30.7,25.9,21.4,95,73,48,30.12,29.92,4,1,6,0.00
2013-1-28,44.6,42.3,40.1,43.8,41.9,39.8,99,98,97,29.80,29.79,0,0,1,0.01
2013-1-29,72.9,67.1,46.4,58.3,56.2,45.9,98,68,54,29.80,29.63,6,1,8,0.00
2013-1-30,76.5,66.6,50.7,62.8,59.5,47.0,95,79,56,29.64,29.03,10,4,20,0.52
2013-1-31,51.1,47.1,39.6,47.4,27.0,16.4,88,49,28,29.55,29.16,9,2,12,0.00
2013-2-1,47.8,43.3,27.9,17.1,13.3,-1.0,41,29,21,29.95,29.55,4,1,6,0.00
2013-2-2,48.0,36.0,0.0,34.7,13.8,1.7,80,42,21,29.96,29.62,7,1,11,0.00
2013-2-3,55.2,42.6,32.9,35.7,28.0,16.0,91,60,25,29.62,29.44,6,1,10,0.00
2013-2-4,50.9,39.3,27.3,28.2,23.6,19.1,79,56,32,29.71,29.58,8,1,8,0.00
2013-2-5,66.6,49.5,34.3,43.1,34.8,26.4,85,59,36,29.58,29.46,7,1,9,0.00
2013-2-6,65.8,49.6,34.7,48.2,31.2,22.1,97,57,21,29.80,29.56,4,0,6,0.00
2013-2-7,49.1,43.1,39.9,41.1,35.4,25.6,99,76,42,29.84,29.54,5,1,9,0.41
2013-2-8,60.6,47.5,39.2,47.8,39.2,29.0,99,75,49,29.68,29.44,6,1,9,0.04
2013-2-9,59.5,43.2,28.6,33.4,23.8,14.7,91,53,20,29.90,29.68,6,0,9,0.00
2013-2-10,59.2,46.7,33.3,48.6,30.1,15.7,98,58,22,30.01,29.76,5,1,8,0.11
2013-2-11,61.7,56.7,49.1,60.1,55.3,48.6,99,95,86,29.76,29.53,7,2,9,0.11
2013-2-12,63.0,52.8,43.9,51.1,39.1,15.1,99,67,23,30.00,29.50,4,0,6,0.07
2013-2-13,61.7,46.3,38.8,60.1,44.7,14.8,99,94,22,30.00,29.24,4,0,8,0.07
2013-2-14,59.9,34.2,33.4,36.1,32.5,20.6,95,94,85,29.89,29.34,4,0,5,0.00
2013-2-15,58.5,38.5,33.8,38.7,33.1,30.4,94,83,36,29.55,29.51,7,0,11,0.00
2013-2-16,47.7,36.8,27.1,36.7,32.2,23.3,95,84,64,29.57,29.41,4,0,10,0.11
2013-2-17,41.5,30.9,21.6,24.3,18.4,8.5,85,63,29,29.83,29.57,6,0,8,0.13
2013-2-18,55.6,39.3,22.6,28.1,21.9,13.5,85,54,27,29.95,29.80,6,1,8,0.00
2013-2-19,48.6,41.1,35.8,44.9,36.3,26.1,99,84,56,29.81,29.47,6,1,8,0.25
2013-2-20,55.2,41.6,27.5,34.2,20.1,8.8,94,47,20,29.68,29.58,5,0,8,0.00
2013-2-21,58.6,44.2,28.4,36.4,20.0,8.1,76,42,21,29.83,29.67,4,0,6,0.00
2013-2-22,48.0,38.8,37.0,37.9,36.1,27.9,99,91,46,29.88,29.68,5,0,8,0.30
2013-2-23,43.5,40.2,36.9,42.8,39.5,36.0,99,97,95,29.71,29.42,4,0,5,0.45
2013-2-24,66.7,51.0,42.8,47.2,38.9,28.2,98,69,28,29.60,29.42,5,0,7,0.00
2013-2-25,44.6,41.6,39.2,33.0,27.2,24.8,76,57,46,29.75,29.59,4,1,8,0.00
2013-2-26,47.5,39.6,33.8,47.2,37.4,25.3,99,93,57,29.65,29.16,5,1,9,0.96
2013-2-27,59.0,46.7,34.9,43.5,37.9,34.1,99,74,46,29.39,29.25,6,1,8,0.00
2013-2-28,52.5,42.9,34.2,40.0,29.3,23.0,95,61,35,29.47,29.31,5,1,8,0.00
2013-3-1,49.6,40.7,28.4,32.7,27.7,23.8,87,61,45,29.51,29.44,8,1,10,0.00
2013-3-2,45.9,39.1,32.4,36.3,30.7,21.8,95,72,60,29.51,29.40,6,1,9,0.07
2013-3-3,46.8,35.7,25.0,24.4,18.6,12.0,83,53,27,29.59,29.46,7,1,12,0.01
2013-3-4,54.9,39.6,24.3,30.0,17.4,8.7,72,45,21,29.71,29.58,6,1,8,0.00
2013-3-5,58.5,46.7,36.7,50.0,38.4,26.4,99,73,58,29.65,29.18,4,0,8,0.41
2013-3-6,51.4,42.0,34.0,44.7,27.0,20.7,98,57,35,29.69,29.20,9,2,16,0.00
2013-3-7,56.3,41.7,28.0,32.1,26.0,22.3,85,56,33,29.84,29.68,6,1,8,0.00
2013-3-8,59.0,44.4,28.8,27.6,22.4,-19.7,76,44,24,29.90,29.77,52,1,13,0.00
2013-3-9,65.1,49.2,33.6,36.3,28.4,23.8,73,48,23,29.92,29.80,4,0,7,0.00
2013-3-10,69.4,53.9,37.2,40.2,35.9,32.1,93,56,27,29.87,29.74,4,0,7,0.00
2013-3-11,70.7,57.2,43.7,56.4,42.0,16.6,95,58,32,29.76,29.44,7,2,11,0.08
2013-3-12,72.0,61.4,49.6,61.8,49.5,24.6,99,71,29,29.57,29.34,6,2,9,0.91
2013-3-13,60.8,47.2,36.5,37.8,26.3,15.5,87,49,24,29.71,29.54,8,1,17,0.00
2013-3-14,56.1,42.1,30.2,27.0,17.2,9.3,64,39,21,29.85,29.71,8,1,17,0.00
2013-3-15,67.5,49.5,30.0,42.2,29.7,18.0,81,50,25,29.79,29.49,5,1,8,0.00
2013-3-16,81.5,66.4,55.6,48.1,43.7,40.1,63,46,28,29.50,29.32,8,2,12,0.00
2013-3-17,80.1,61.9,48.9,53.8,45.7,40.1,80,57,33,29.66,29.45,6,1,11,0.00
2013-3-18,48.7,43.6,40.1,43.9,41.8,39.8,99,94,75,29.69,29.43,6,1,10,0.86
2013-3-19,70.3,53.1,41.2,50.5,31.6,14.2,99,57,15,29.62,29.43,7,1,8,0.00
2013-3-20,58.8,49.7,43.3,31.7,16.0,8.7,56,26,20,29.68,29.35,5,1,8,0.00
2013-3-21,50.7,41.3,32.2,29.6,12.1,4.6,60,31,21,29.54,29.34,11,2,17,0.00
2013-3-22,53.6,40.3,27.0,27.5,15.6,8.1,65,38,22,29.65,29.53,4,1,7,0.00
2013-3-23,52.0,44.9,40.5,44.0,37.9,26.6,99,78,47,29.63,29.48,2,0,4,0.04
2013-3-24,43.7,41.3,38.8,43.2,40.7,38.3,99,98,91,29.50,29.13,6,1,9,0.83
2013-3-25,49.1,42.1,37.9,40.3,30.4,16.9,99,68,32,29.47,29.13,6,1,11,0.04
2013-3-26,51.1,39.8,28.8,28.4,24.9,21.8,85,57,37,29.76,29.47,6,1,14,0.00
2013-3-27,56.3,42.6,28.6,28.0,22.0,16.0,85,48,23,29.83,29.74,7,1,22,0.00
2013-3-28,58.3,44.1,28.8,29.2,22.3,14.6,85,47,21,29.87,29.76,8,1,30,0.00
2013-3-29,64.6,48.6,29.8,39.9,26.7,18.7,88,49,21,29.92,29.75,6,1,9,0.00
2013-3-30,66.9,55.6,46.4,50.4,45.1,39.7,99,72,41,29.80,29.63,4,0,7,0.24
2013-3-31,72.7,59.9,50.9,59.2,53.0,46.5,99,80,52,29.63,29.40,5,1,11,0.30
2013-4-1,77.0,63.8,54.9,58.4,46.2,29.6,99,61,21,29.52,29.41,6,1,10,0.02
2013-4-2,67.5,56.0,43.0,40.9,32.9,20.3,77,44,22,29.73,29.52,5,1,10,0.00
2013-4-3,64.4,54.8,45.9,25.2,20.0,12.4,33,26,20,29.84,29.69,6,1,11,0.00
2013-4-4,52.0,43.1,37.2,40.0,32.5,17.4,99,72,28,29.83,29.54,7,2,12,0.91
2013-4-5,65.3,49.5,37.2,49.3,42.0,36.5,99,79,44,29.62,29.48,6,1,9,0.00
2013-4-6,72.9,55.8,37.9,44.9,37.6,28.5,99,59,22,29.79,29.62,5,1,8,0.00
2013-4-7,73.6,59.4,44.1,52.5,44.8,37.2,83,60,33,29.85,29.68,7,1,10,0.00
2013-4-8,81.7,67.0,52.3,57.7,53.6,50.6,98,66,39,29.75,29.65,6,1,9,0.00
2013-4-9,87.8,70.8,54.3,60.6,56.6,53.3,97,64,38,29.78,29.67,4,1,7,0.00
2013-4-10,87.6,73.7,60.6,62.8,59.5,56.1,95,64,38,29.71,29.55,5,1,8,0.00
2013-4-11,82.9,71.3,61.3,68.4,62.4,57.6,97,75,48,29.58,29.35,5,1,8,0.02
2013-4-12,81.9,71.1,61.9,69.4,58.5,40.8,99,69,29,29.42,29.24,7,2,10,0.51
2013-4-13,79.0,62.8,46.8,50.7,42.7,35.8,95,53,24,29.60,29.42,4,0,5,0.00
2013-4-14,79.2,63.5,47.3,55.5,47.1,37.5,97,61,24,29.66,29.57,8,0,10,0.00
2013-4-15,73.2,65.2,59.0,60.8,58.4,53.3,98,80,62,29.76,29.56,3,0,5,0.00
2013-4-16,81.3,69.2,60.3,64.3,60.3,57.5,97,75,50,29.88,29.76,4,0,8,0.00
2013-4-17,87.6,69.2,58.1,65.8,60.5,56.2,99,78,42,29.84,29.70,4,0,6,0.00
2013-4-18,82.8,74.9,68.4,64.5,61.6,58.1,80,64,46,29.75,29.59,4,1,11,0.00
2013-4-19,81.1,68.2,54.5,68.8,64.1,52.9,99,88,58,29.59,29.35,7,2,20,0.31
2013-4-20,66.6,54.9,46.0,53.4,38.6,25.9,97,58,26,29.84,29.48,4,1,7,0.00
2013-4-21,66.6,54.1,43.2,44.8,40.9,36.6,97,64,38,30.01,29.84,4,1,8,0.00
2013-4-22,66.6,53.7,42.6,41.7,34.2,23.2,83,52,22,29.99,29.79,5,1,9,0.00
2013-4-23,71.6,58.4,50.4,54.0,47.9,40.0,91,69,49,29.84,29.69,4,0,8,0.00
2013-4-24,75.6,62.8,50.9,59.3,55.3,50.6,99,79,49,29.73,29.60,4,0,8,0.00
2013-4-25,73.6,62.3,51.3,59.5,44.7,29.1,92,57,22,29.85,29.64,5,1,9,0.00
2013-4-26,76.3,61.3,50.0,49.5,38.2,29.3,83,46,20,30.01,29.85,4,1,8,0.00
2013-4-27,66.6,58.8,55.2,58.2,52.2,46.5,99,80,59,29.93,29.82,2,0,3,0.25
2013-4-28,60.1,56.4,54.7,59.8,56.1,53.9,99,99,97,29.83,29.64,4,0,5,1.61
2013-4-29,72.0,62.6,57.0,64.8,60.0,56.8,99,92,69,29.64,29.53,2,0,4,0.25
2013-4-30,73.0,63.7,59.7,63.4,60.2,56.8,99,89,68,29.75,29.56,4,0,7,0.25
2013-5-1,65.3,60.0,53.8,58.3,56.3,53.0,99,88,75,29.86,29.75,5,1,8,0.00
2013-5-2,63.3,59.2,57.2,59.0,57.4,56.3,99,94,83,29.88,29.80,26,1,51,0.09
2013-5-3,68.9,61.3,55.0,56.3,53.3,45.1,91,76,57,29.82,29.69,6,1,9,0.01
2013-5-4,63.5,56.6,50.4,52.8,48.2,42.5,85,74,60,29.69,29.57,6,1,12,0.00
2013-5-5,60.1,55.3,52.3,59.8,53.3,48.9,99,93,81,29.61,29.42,7,1,11,0.41
2013-5-6,72.9,62.4,55.9,61.9,56.5,48.2,99,83,48,29.49,29.41,5,0,8,0.61
2013-5-7,71.8,58.7,46.9,54.7,50.9,46.7,99,77,47,29.54,29.44,4,0,12,0.00
2013-5-8,76.5,63.7,52.0,59.7,56.3,51.3,99,79,49,29.59,29.50,4,0,6,0.00
2013-5-9,84.2,67.9,53.8,62.1,56.7,52.1,99,71,37,29.67,29.58,4,0,6,0.00
2013-5-10,84.7,70.9,57.4,65.8,60.7,56.8,98,73,46,29.67,29.56,4,0,6,0.00
2013-5-11,82.4,71.8,64.0,64.9,62.7,60.8,99,74,51,29.57,29.41,4,1,8,0.08
2013-5-12,76.6,65.4,57.2,63.4,50.0,27.9,99,64,19,29.62,29.44,4,0,6,0.00
2013-5-13,70.3,58.5,46.9,45.3,37.6,26.4,84,49,24,29.75,29.62,5,0,8,0.00
2013-5-14,75.7,60.6,43.5,48.0,41.3,35.4,89,52,26,29.83,29.66,5,0,8,0.00
2013-5-15,90.9,71.5,54.9,63.5,57.1,47.4,89,63,35,29.67,29.53,4,0,7,0.00
2013-5-16,84.9,72.9,61.2,65.7,60.9,56.2,90,67,43,29.63,29.55,2,0,3,0.00
2013-5-17,88.5,73.6,61.9,68.0,63.0,59.1,97,72,47,29.68,29.61,3,0,4,0.00
2013-5-18,74.3,70.4,65.8,67.0,64.5,62.1,92,82,70,29.74,29.67,3,0,7,0.00
2013-5-19,79.5,69.4,66.2,72.7,67.8,64.8,99,95,71,29.72,29.63,4,0,7,1.24
2013-5-20,82.8,71.7,67.3,72.3,68.6,67.0,99,91,63,29.73,29.62,2,0,4,0.24
2013-5-21,89.1,71.6,65.5,73.6,69.0,64.7,99,92,58,29.65,29.55,8,0,12,0.43
2013-5-22,86.4,74.2,66.0,71.2,67.7,62.9,99,82,56,29.63,29.49,4,0,8,0.30
2013-5-23,77.5,69.2,64.4,70.4,66.3,62.3,99,91,71,29.58,29.43,2,0,4,0.31
2013-5-24,73.8,66.8,56.5,65.0,51.5,32.9,97,62,26,29.78,29.47,4,1,8,0.00
2013-5-25,79.0,61.9,45.0,52.5,45.6,36.3,97,59,27,29.88,29.73,4,0,7,0.00
2013-5-26,79.2,65.3,58.6,54.6,47.4,38.6,85,54,32,29.87,29.75,3,0,6,0.00
2013-5-27,86.4,69.3,54.9,61.6,56.7,52.2,95,67,39,29.85,29.74,4,0,8,0.00
2013-5-28,86.9,74.0,63.7,66.7,63.9,60.6,96,73,47,29.84,29.74,4,0,8,0.00
2013-5-29,87.8,72.9,0.0,67.0,62.6,60.1,95,70,44,29.85,29.75,4,0,7,0.00
2013-5-30,70.7,67.3,66.9,63.9,63.3,63.0,88,87,77,29.81,29.80,0,0,0,0.00
2013-5-31,66.9,66.9,66.9,63.3,63.3,63.3,88,88,88,29.81,29.81,0,0,0,0.00
2013-6-1,66.9,66.9,66.9,63.3,63.3,63.3,88,88,88,29.81,29.81,0,0,0,0.00
2013-6-2,66.9,66.9,66.9,63.3,63.3,63.3,88,88,88,29.81,29.81,0,0,0,0.00
2013-6-3,81.1,71.1,66.9,72.2,68.7,63.3,99,93,64,29.81,29.56,2,0,2,1.80
2013-6-4,84.4,74.4,67.3,71.5,67.4,65.6,99,80,56,29.78,29.66,3,0,6,0.00
2013-6-5,79.5,71.4,66.6,71.3,68.2,65.5,99,90,72,29.81,29.69,4,0,8,0.11
2013-6-6,71.6,71.2,70.2,70.7,70.4,69.6,98,97,97,29.71,29.53,2,0,3,0.02
2013-6-7,77.9,71.5,68.0,74.5,69.9,39.2,99,95,82,29.90,29.35,3,0,34,0.13
2013-6-8,84.2,73.4,66.9,72.7,67.9,8.6,99,86,10,29.81,29.55,2,0,4,0.13
2013-6-9,71.8,68.5,68.2,69.4,68.0,67.8,99,98,92,29.81,29.79,1,0,2,0.00
2013-6-10,80.8,71.0,68.2,76.7,69.8,67.6,99,96,81,29.81,29.62,5,1,8,0.46
2013-6-11,70.0,69.2,68.9,68.8,68.5,68.3,99,98,95,29.69,29.67,2,0,3,0.46
2013-6-12,69.1,69.1,69.1,68.5,68.5,68.5,98,98,98,29.67,29.67,0,0,2,0.46
2013-6-13,69.1,69.1,69.1,68.5,68.5,68.5,98,98,98,29.67,29.67,0,0,2,0.46
2013-6-14,69.1,69.1,69.1,68.5,68.5,68.5,98,98,98,29.67,29.67,0,0,2,0.46
2013-6-15,86.2,73.5,60.8,68.5,64.5,60.0,98,76,45,29.85,29.67,3,0,5,0.08
2013-6-16,87.3,74.9,63.7,70.6,66.4,61.6,96,76,53,29.88,29.73,3,0,5,0.00
2013-6-17,88.0,75.2,70.9,73.3,69.3,65.7,98,82,60,29.77,29.65,4,0,5,0.02
2013-6-18,85.5,74.5,70.7,73.2,71.0,69.4,98,90,64,29.70,29.51,4,0,7,0.17
2013-6-19,85.3,74.7,68.7,70.7,67.0,61.7,99,79,49,29.81,29.61,4,0,8,0.00
2013-6-20,85.3,74.3,67.1,67.9,65.4,61.4,95,75,49,29.94,29.81,4,0,8,0.00
2013-6-21,87.6,73.5,63.9,65.8,62.3,59.5,90,70,47,29.97,29.88,4,0,9,0.00
2013-6-22,87.1,74.3,64.6,70.1,66.0,60.6,89,76,52,29.93,29.82,3,0,6,0.00
2013-6-23,85.1,75.9,69.3,79.2,70.6,67.7,97,84,64,29.92,29.84,4,0,6,0.19
2013-6-24,85.6,75.1,71.6,74.8,72.2,70.5,97,91,70,29.93,29.83,2,0,5,0.07
2013-6-25,91.9,78.1,71.4,74.3,71.5,69.1,98,82,50,29.86,29.73,4,0,7,0.00
2013-6-26,93.0,78.1,70.7,74.4,71.2,68.5,97,81,50,29.77,29.62,3,0,4,0.00
2013-6-27,89.1,78.5,72.0,76.5,73.3,68.8,98,85,62,29.67,29.46,4,0,8,0.02
2013-6-28,93.9,79.7,71.6,75.4,72.1,67.7,99,80,50,29.49,29.31,4,0,11,0.21
2013-6-29,89.1,77.1,71.1,75.2,71.2,67.8,99,83,54,29.45,29.34,4,0,8,0.00
2013-6-30,74.3,73.8,73.4,71.7,71.7,70.2,93,93,88,29.45,29.44,0,0,0,0.00
2013-7-1,73.8,73.8,73.8,71.7,71.7,71.7,93,93,93,29.45,29.45,0,0,0,0.00
2013-7-2,75.6,73.3,71.4,71.7,71.4,68.5,97,94,85,29.86,29.45,6,0,9,0.57
2013-7-3,80.1,74.8,72.5,75.6,73.1,71.6,99,95,82,29.93,29.84,3,0,4,0.15
2013-7-4,90.3,77.4,73.0,76.1,72.8,68.4,99,87,52,29.96,29.86,5,0,12,0.15
2013-7-5,87.3,76.3,71.8,76.4,73.5,70.0,99,92,65,29.97,29.89,7,0,10,0.89
2013-7-6,87.3,75.6,71.2,77.6,72.6,69.6,98,91,67,29.95,29.83,8,0,10,0.22
2013-7-7,85.6,76.4,72.1,77.0,73.3,70.9,99,91,70,29.90,29.79,4,0,8,0.26
2013-7-8,84.2,76.9,71.8,76.3,73.3,70.9,99,89,71,29.91,29.82,2,0,3,0.02
2013-7-9,91.6,79.2,73.2,75.8,73.6,70.2,97,84,58,29.89,29.77,2,0,6,0.00
2013-7-10,88.5,77.5,70.2,75.5,71.7,68.4,95,83,62,29.85,29.68,4,0,9,0.00
2013-7-11,81.0,74.3,71.1,76.1,72.1,69.3,97,93,85,29.70,29.60,3,0,4,0.44
2013-7-12,83.3,74.5,70.5,73.2,70.5,67.7,98,88,69,29.73,29.59,4,0,8,0.00
2013-7-13,79.9,73.7,70.0,73.4,69.8,67.2,98,88,77,29.82,29.72,3,0,6,0.35
2013-7-14,89.1,77.0,69.8,75.0,71.7,68.3,98,85,56,29.99,29.80,5,0,10,0.53
2013-7-15,91.2,78.4,70.9,74.3,71.1,68.1,96,80,51,30.03,29.94,3,0,6,0.00
2013-7-16,95.2,80.3,70.9,75.4,71.6,68.9,96,77,47,30.02,29.91,2,0,4,0.00
2013-7-17,93.6,77.4,72.0,77.8,72.6,68.4,94,86,56,29.95,29.85,4,0,6,0.01
2013-7-18,93.4,77.6,69.6,77.2,72.8,68.3,97,86,56,29.90,29.78,2,0,5,0.53
2013-7-19,91.8,79.7,73.8,77.8,74.2,72.0,98,84,59,29.84,29.71,3,0,4,0.00
2013-7-20,88.0,78.3,74.5,75.9,73.1,71.1,93,84,65,29.77,29.64,4,0,6,0.00
2013-7-21,91.9,77.6,72.7,76.6,72.6,68.8,97,86,56,29.74,29.62,9,0,11,0.84
2013-7-22,87.3,75.5,71.6,76.3,72.6,70.7,97,91,66,29.72,29.57,2,0,5,0.05
2013-7-23,88.9,78.6,73.0,74.3,72.0,69.5,96,81,59,29.59,29.49,3,0,4,0.00
2013-7-24,95.0,78.0,66.6,74.8,70.8,62.1,97,81,46,29.59,29.47,9,0,11,0.64
2013-7-25,84.2,74.4,69.3,71.7,69.1,66.2,98,84,62,29.74,29.54,3,0,6,0.00
2013-7-26,89.2,75.3,67.6,72.0,68.7,66.2,97,81,51,29.82,29.72,3,0,6,0.00
2013-7-27,80.2,73.4,70.3,73.9,70.4,67.8,96,90,77,29.75,29.64,2,0,3,0.64
2013-7-28,89.1,76.3,70.0,73.5,70.9,68.7,96,84,55,29.71,29.64,0,0,0,0.00
2013-7-29,91.4,77.0,70.2,71.5,69.0,65.3,95,78,46,29.87,29.71,3,0,6,0.00
2013-7-30,87.6,76.0,69.3,70.2,67.3,61.8,95,76,47,29.93,29.84,3,0,7,0.00
2013-7-31,83.5,74.1,70.0,72.7,69.8,66.2,95,87,65,29.87,29.71,4,0,7,0.19
2013-8-1,91.6,75.3,71.1,75.6,71.6,55.5,95,89,57,29.72,29.59,3,0,5,0.08
2013-8-2,88.9,77.1,69.1,73.1,70.3,66.9,96,81,53,29.75,29.64,3,0,6,0.00
2013-8-3,88.3,78.7,73.2,76.3,72.5,69.6,96,82,58,29.74,29.66,2,0,4,0.00
2013-8-4,86.4,76.7,70.2,71.7,68.3,64.8,94,77,52,29.74,29.64,3,0,4,0.00
2013-8-5,87.3,75.6,69.1,70.4,67.1,63.3,92,76,50,29.80,29.69,4,0,7,0.00
2013-8-6,75.4,71.0,67.3,70.1,67.4,64.7,96,88,75,29.79,29.69,4,0,8,0.44
2013-8-7,84.2,75.4,69.4,72.6,69.5,67.0,95,83,61,29.81,29.73,4,0,8,0.00
2013-8-8,88.0,77.2,72.1,77.3,71.9,21.9,93,84,64,29.79,29.71,2,0,4,0.00
2013-8-9,91.6,79.4,73.4,77.6,73.3,70.3,95,82,62,29.80,29.72,3,0,6,0.00
2013-8-10,94.3,79.6,73.9,78.3,72.9,70.2,95,81,55,29.83,29.76,4,0,8,0.00
2013-8-11,95.7,79.7,72.5,76.0,72.2,70.1,95,79,48,29.83,29.73,2,0,4,0.00
2013-8-12,95.7,80.7,72.1,75.0,72.2,68.9,95,77,46,29.77,29.65,3,0,4,0.00
2013-8-13,88.3,80.3,72.0,75.5,72.0,68.6,94,77,61,29.68,29.51,3,0,5,0.00
2013-8-14,84.6,74.6,66.7,72.9,64.7,59.1,92,72,56,29.77,29.51,4,0,5,0.01
2013-8-15,75.9,68.6,63.3,62.0,58.2,54.6,85,70,52,29.85,29.76,4,0,10,0.00
2013-8-16,69.3,64.9,61.9,63.2,59.8,56.7,94,84,70,29.87,29.78,3,0,5,0.07
2013-8-17,65.7,62.8,61.3,64.3,61.1,58.5,97,94,82,29.89,29.84,3,0,4,0.84
2013-8-18,83.8,81.2,77.7,75.3,73.4,72.1,85,77,69,29.92,29.86,3,1,4,0.00
2013-8-19,75.9,74.3,72.7,74.1,72.2,70.2,95,93,87,29.85,29.82,1,0,2,0.09
2013-8-20,72.5,71.8,70.7,71.0,70.3,69.5,96,95,94,29.88,29.82,0,0,0,0.00
2013-8-21,70.5,70.1,69.6,69.3,69.0,68.6,97,96,96,29.86,29.83,0,0,0,0.00
2013-8-22,82.9,78.4,69.8,74.8,72.2,68.9,97,82,70,29.97,29.84,2,0,3,1.82
2013-8-23,88.5,75.9,69.3,73.3,69.2,66.0,96,81,50,29.93,29.82,3,0,4,0.00
2013-8-24,84.7,72.5,65.8,68.0,61.9,55.8,87,71,43,30.14,29.92,4,1,9,0.00
2013-8-25,82.6,69.9,61.2,64.4,60.4,55.4,94,74,45,30.25,30.13,7,0,11,0.00
2013-8-26,86.0,69.5,57.7,64.4,60.6,56.6,96,76,44,30.18,29.99,2,0,4,0.00
2013-8-27,89.6,74.3,62.8,70.1,65.3,60.3,94,75,47,30.01,29.86,3,0,4,0.00
2013-8-28,88.3,77.8,69.3,74.5,70.1,67.1,94,78,55,29.89,29.79,2,0,4,0.00
2013-8-29,93.6,80.9,73.0,74.0,70.7,67.3,91,73,47,29.85,29.76,3,0,6,0.00
2013-8-30,89.8,78.0,70.9,69.9,66.4,61.1,90,69,44,29.93,29.81,3,0,6,0.00
2013-8-31,86.7,75.6,68.4,76.7,69.9,65.6,95,83,62,29.84,29.73,4,0,8,0.09
2013-9-1,89.8,75.9,69.3,75.7,70.8,65.1,97,86,57,29.80,29.67,5,0,8,0.06
2013-9-2,87.6,77.0,71.1,73.3,71.3,68.0,97,84,55,29.79,29.69,3,0,4,0.01
2013-9-3,89.2,78.7,71.4,72.7,69.2,62.6,95,75,43,29.84,29.69,3,0,4,0.00
2013-9-4,88.9,77.8,66.9,67.9,63.2,58.6,89,62,44,29.96,29.83,3,0,15,0.00
2013-9-5,89.8,81.0,68.9,68.3,64.8,62.4,87,59,43,29.99,29.91,0,0,0,0.00
2013-9-6,86.2,74.3,66.7,65.4,60.6,19.5,89,64,44,30.05,29.93,4,0,7,0.00
2013-9-7,85.3,72.5,63.1,65.8,62.1,58.6,88,71,49,30.00,29.85,4,0,6,0.00
2013-9-8,88.0,74.9,64.0,70.5,64.4,61.4,95,73,44,29.85,29.78,3,0,4,0.00
2013-9-9,91.2,77.0,66.9,69.5,65.2,62.1,95,70,41,30.00,29.85,4,0,8,0.00
2013-9-10,91.8,77.6,67.8,71.7,66.8,63.7,95,72,44,30.10,30.00,4,0,8,0.00
2013-9-11,92.5,77.3,66.7,70.6,66.3,63.2,94,71,42,30.08,29.94,4,0,6,0.00
2013-9-12,91.2,77.6,68.7,69.1,66.4,64.1,86,70,45,29.94,29.73,4,0,6,0.00
2013-9-13,86.7,77.2,70.3,60.9,55.1,51.5,52,47,39,29.77,29.65,4,0,8,0.00
2013-9-14,79.5,68.7,59.9,57.9,53.0,47.7,76,58,43,29.96,29.77,4,0,7,0.00
2013-9-15,82.2,69.8,59.9,64.7,60.0,54.6,85,72,53,30.06,29.96,4,0,7,0.00
2013-9-16,87.3,76.6,68.4,70.2,64.4,56.8,93,69,38,30.02,29.91,4,0,6,0.00
2013-9-17,77.2,70.7,64.8,62.0,55.5,52.4,69,59,47,30.16,30.02,6,1,9,0.00
2013-9-18,77.4,66.4,58.6,56.5,53.0,49.0,79,63,44,30.16,30.03,4,0,6,0.00
2013-9-19,81.7,68.0,59.0,62.3,57.6,54.2,85,71,47,30.05,29.94,4,0,5,0.00
2013-9-20,90.9,72.8,62.8,67.2,63.4,59.4,90,74,43,29.96,29.79,4,0,6,0.00
2013-9-21,76.5,70.9,66.0,69.4,66.6,64.5,98,86,73,29.80,29.53,4,0,7,1.39
2013-9-22,80.2,67.4,60.1,65.5,57.7,52.8,98,74,43,29.76,29.53,6,0,9,0.13
2013-9-23,76.1,65.3,57.0,59.1,56.0,51.9,93,74,51,29.91,29.75,4,0,6,0.00
2013-9-24,81.1,67.4,58.6,60.0,57.7,54.8,93,73,45,30.67,29.80,4,0,6,0.00
2013-9-25,70.2,65.7,61.5,64.4,59.9,57.4,96,82,73,29.82,29.74,2,0,4,0.17
2013-9-26,68.4,68.4,68.4,59.8,59.8,59.8,74,74,74,29.75,29.75,0,0,3,0.17
2013-9-27,68.4,68.4,68.4,59.8,59.8,59.8,74,74,74,29.75,29.75,0,0,3,0.17
2013-9-28,68.4,68.4,68.4,59.8,59.8,59.8,74,74,74,29.75,29.75,0,0,3,0.17
2013-9-29,68.4,68.4,68.4,59.8,59.8,59.8,74,74,74,29.75,29.75,0,0,3,0.17
2013-9-30,68.4,68.4,68.4,59.8,59.8,59.8,74,74,74,29.75,29.75,0,0,3,0.17
2013-10-1,82.2,70.1,54.7,62.7,59.4,53.9,97,70,44,29.99,29.75,3,0,4,0.09
2013-10-2,86.4,68.8,57.4,65.1,60.5,56.5,97,77,44,30.02,29.93,0,0,0,0.00
2013-10-3,86.4,70.2,61.3,67.1,61.9,59.3,97,78,45,30.01,29.93,0,0,0,0.00
2013-10-4,86.2,70.8,60.1,66.9,62.5,59.1,97,77,47,30.01,29.93,0,0,0,0.00
2013-10-5,88.3,72.9,62.1,69.1,64.2,61.2,97,77,44,30.00,29.89,0,0,0,0.00
2013-10-6,87.1,72.7,63.3,68.1,64.6,62.1,97,77,49,29.92,29.75,0,0,0,0.00
2013-10-7,79.0,72.0,66.6,72.9,67.1,53.2,97,85,62,29.85,29.67,0,0,0,0.24
2013-10-8,66.7,62.6,59.5,53.8,49.7,46.0,67,63,55,30.03,29.85,6,1,10,0.00
2013-10-9,73.2,62.1,53.1,53.3,49.2,45.1,80,63,45,30.06,29.97,5,1,8,0.00
2013-10-10,70.9,63.7,54.9,60.7,55.1,48.1,82,74,63,29.97,29.83,4,0,6,0.00
2013-10-11,78.3,69.4,61.2,62.3,58.6,55.0,84,69,49,29.85,29.78,2,0,4,0.00
2013-10-12,74.5,67.2,59.0,64.7,60.9,58.4,98,81,63,29.95,29.83,3,0,4,0.00
2013-10-13,69.3,66.0,63.9,63.0,62.0,60.3,93,87,78,30.08,29.94,4,0,8,0.01
2013-10-14,68.7,64.1,60.8,63.0,60.7,58.0,97,89,78,30.11,30.01,3,0,6,0.04
2013-10-15,75.7,64.5,57.9,58.3,55.3,48.9,92,74,44,30.03,29.90,4,0,8,0.00
2013-10-16,74.1,63.4,54.0,62.2,58.1,53.1,98,84,59,29.94,29.82,2,0,2,0.00
2013-10-17,71.2,66.0,60.4,66.3,63.5,59.6,99,92,77,29.84,29.73,0,0,0,0.05
2013-10-18,66.0,65.3,64.9,65.8,65.0,64.7,99,99,99,29.76,29.75,0,0,0,0.00
2013-10-27,0.0,0.0,0.0,65.0,65.0,65.0,0,0,100,29.94,29.93,0,0,0,0.00
2013-10-30,0.0,0.0,0.0,65.0,65.0,65.0,0,0,100,30.06,30.01,0,0,0,0.00
2013-10-31,0.0,0.0,0.0,65.0,65.0,65.0,0,0,100,30.04,30.00,0,0,0,0.00
2013-11-4,0.0,0.0,0.0,65.0,65.0,65.0,0,0,100,30.29,30.29,0,0,0,0.00
2013-11-11,0.0,0.0,0.0,65.0,65.0,65.0,0,0,100,30.18,29.97,0,0,0,0.00
2013-11-12,0.0,0.0,0.0,65.0,65.0,65.0,0,0,100,30.26,29.87,0,0,0,0.00
2013-11-13,0.0,0.0,0.0,65.0,65.0,65.0,0,0,100,30.26,30.25,0,0,0,0.00
2013-11-14,0.0,0.0,0.0,65.0,65.0,65.0,0,0,100,30.26,30.26,0,0,0,0.00
2013-11-15,0.0,0.0,0.0,65.0,65.0,65.0,0,0,100,30.26,30.26,0,0,0,0.00
2013-11-16,0.0,0.0,0.0,65.0,65.0,65.0,0,0,100,30.26,30.26,0,0,0,0.00
2013-11-17,0.0,0.0,0.0,65.0,65.0,65.0,0,0,100,30.26,30.26,0,0,0,0.00
2013-11-18,0.0,0.0,0.0,65.0,65.0,65.0,0,0,100,30.26,30.26,0,0,0,0.00
2013-11-19,0.0,0.0,0.0,65.0,65.0,65.0,0,0,100,30.26,30.26,0,0,0,0.00
2013-11-20,0.0,0.0,0.0,65.0,65.0,65.0,0,0,100,30.26,30.26,0,0,0,0.00
2013-11-21,0.0,0.0,0.0,65.0,65.0,65.0,0,0,100,30.26,30.26,0,0,0,0.00
2013-11-22,0.0,0.0,0.0,65.0,65.0,65.0,0,0,100,30.26,30.26,0,0,0,0.00
2013-11-23,0.0,0.0,0.0,65.0,65.0,65.0,0,0,100,30.26,30.26,0,0,0,0.00
2013-11-24,0.0,0.0,0.0,65.0,65.0,65.0,0,0,100,30.26,30.26,0,0,0,0.00